IMP707 LPHR-LPPS
Flight info
| Callsign | IMP707 |
|---|---|
| Flight time | N/A |
| Altitude | 35000 |
| Route | RODIL H101 VSM H104 ETROX 3500N02200W 3500N02100W 3400N01900W IRKID |
| Aircraft | MD82/M-VGDW/C |
Departure
| Time | 2026-05-03 21:04 |
|---|---|
| Airport | Horta Airport (LPHR) |
Arrival
| Time | N/A |
|---|---|
| Airport | Porto Santo Airport (LPPS) |
| Time | Latitude | Longitude | Altitude | Speed | Heading |
|---|---|---|---|---|---|
| 2026-05-03 20:42 | 38.52104 | -28.71628 | 128 ft | 0 kts | 143° |
| 2026-05-03 20:52 | 38.52104 | -28.71627 | 128 ft | 0 kts | 143° |
| 2026-05-03 20:56 | 38.52103 | -28.71627 | 128 ft | 0 kts | 143° |
| 2026-05-03 20:58 | 38.52103 | -28.71626 | 128 ft | 0 kts | 143° |
| 2026-05-03 20:59 | 38.52098 | -28.71625 | 128 ft | 1 kts | 168° |
| 2026-05-03 20:59 | 38.52083 | -28.71630 | 128 ft | 7 kts | 193° |
| 2026-05-03 20:59 | 38.52001 | -28.71654 | 128 ft | 15 kts | 230° |
| 2026-05-03 21:00 | 38.51989 | -28.71831 | 128 ft | 26 kts | 269° |
| 2026-05-03 21:00 | 38.51989 | -28.71908 | 128 ft | 28 kts | 270° |
| 2026-05-03 21:00 | 38.51987 | -28.72276 | 128 ft | 34 kts | 270° |
| 2026-05-03 21:00 | 38.51976 | -28.72462 | 128 ft | 13 kts | 250° |
| 2026-05-03 21:01 | 38.51972 | -28.72546 | 128 ft | 2 kts | 330° |
| 2026-05-03 21:01 | 38.51977 | -28.72542 | 128 ft | 1 kts | 28° |
| 2026-05-03 21:01 | 38.51983 | -28.72522 | 128 ft | 5 kts | 77° |
| 2026-05-03 21:01 | 38.51985 | -28.72505 | 128 ft | 0 kts | 85° |
| 2026-05-03 21:02 | 38.51985 | -28.72504 | 128 ft | 0 kts | 85° |
| 2026-05-03 21:04 | 38.51988 | -28.72273 | 128 ft | 61 kts | 90° |
| 2026-05-03 21:04 | 38.51990 | -28.71447 | 128 ft | 124 kts | 89° |
| 2026-05-03 21:04 | 38.51989 | -28.70163 | 317 ft | 156 kts | 88° |
| 2026-05-03 21:04 | 38.51984 | -28.68744 | 935 ft | 165 kts | 88° |
| 2026-05-03 21:05 | 38.51991 | -28.67259 | 1670 ft | 171 kts | 88° |
| 2026-05-03 21:05 | 38.52014 | -28.65689 | 2322 ft | 183 kts | 88° |
| 2026-05-03 21:05 | 38.52039 | -28.64069 | 3154 ft | 177 kts | 91° |
| 2026-05-03 21:05 | 38.51596 | -28.62641 | 3851 ft | 179 kts | 125° |
| 2026-05-03 21:06 | 38.50521 | -28.61746 | 4285 ft | 195 kts | 154° |
| 2026-05-03 21:06 | 38.49198 | -28.61167 | 4710 ft | 208 kts | 158° |
| 2026-05-03 21:06 | 38.47818 | -28.60493 | 5199 ft | 217 kts | 154° |
| 2026-05-03 21:06 | 38.46393 | -28.59613 | 5701 ft | 232 kts | 149° |
| 2026-05-03 21:07 | 38.44962 | -28.58534 | 6068 ft | 246 kts | 144° |
| 2026-05-03 21:07 | 38.43537 | -28.57285 | 6555 ft | 252 kts | 141° |
| 2026-05-03 21:07 | 38.42136 | -28.55918 | 7200 ft | 255 kts | 139° |
| 2026-05-03 21:07 | 38.40756 | -28.54479 | 7854 ft | 258 kts | 137° |
| 2026-05-03 21:08 | 38.39384 | -28.52988 | 8493 ft | 261 kts | 136° |
| 2026-05-03 21:08 | 38.38019 | -28.51453 | 9122 ft | 263 kts | 136° |
| 2026-05-03 21:08 | 38.36649 | -28.49886 | 9699 ft | 268 kts | 135° |
| 2026-05-03 21:08 | 38.35251 | -28.48276 | 9867 ft | 270 kts | 135° |
| 2026-05-03 21:09 | 38.33867 | -28.46679 | 9964 ft | 268 kts | 135° |
| 2026-05-03 21:09 | 38.32763 | -28.44816 | 9989 ft | 264 kts | 112° |
| 2026-05-03 21:09 | 38.32421 | -28.42545 | 10019 ft | 263 kts | 90° |
| 2026-05-03 21:09 | 38.32568 | -28.40427 | 10012 ft | 263 kts | 81° |
| 2026-05-03 21:10 | 38.32956 | -28.38087 | 10005 ft | 263 kts | 76° |
| 2026-05-03 21:10 | 38.33439 | -28.35811 | 10002 ft | 263 kts | 74° |
| 2026-05-03 21:10 | 38.33949 | -28.33582 | 10003 ft | 262 kts | 74° |
| 2026-05-03 21:10 | 38.34469 | -28.31359 | 10003 ft | 262 kts | 73° |
| 2026-05-03 21:11 | 38.34993 | -28.29139 | 10004 ft | 262 kts | 73° |
| 2026-05-03 21:11 | 38.35516 | -28.26915 | 10004 ft | 262 kts | 74° |
| 2026-05-03 21:11 | 38.35653 | -28.24627 | 10002 ft | 262 kts | 97° |
| 2026-05-03 21:11 | 38.35118 | -28.22403 | 10013 ft | 265 kts | 111° |
| 2026-05-03 21:12 | 38.34286 | -28.20313 | 10008 ft | 265 kts | 117° |
| 2026-05-03 21:12 | 38.33348 | -28.18294 | 10005 ft | 265 kts | 120° |
| 2026-05-03 21:12 | 38.32378 | -28.16304 | 10004 ft | 265 kts | 120° |
| 2026-05-03 21:12 | 38.31407 | -28.14311 | 10005 ft | 265 kts | 120° |
| 2026-05-03 21:13 | 38.30452 | -28.12305 | 10005 ft | 265 kts | 119° |
| 2026-05-03 21:13 | 38.29513 | -28.10283 | 10009 ft | 266 kts | 118° |
| 2026-05-03 21:13 | 38.28581 | -28.08216 | 10010 ft | 266 kts | 118° |
| 2026-05-03 21:13 | 38.27674 | -28.06174 | 10009 ft | 266 kts | 118° |
| 2026-05-03 21:14 | 38.26770 | -28.04123 | 10009 ft | 266 kts | 117° |
| 2026-05-03 21:14 | 38.25885 | -28.02064 | 10009 ft | 266 kts | 117° |
| 2026-05-03 21:14 | 38.25008 | -28.00003 | 10009 ft | 266 kts | 117° |
| 2026-05-03 21:14 | 38.24129 | -27.97938 | 10009 ft | 266 kts | 117° |
| 2026-05-03 21:15 | 38.23241 | -27.95879 | 10009 ft | 266 kts | 117° |
| 2026-05-03 21:15 | 38.22354 | -27.93824 | 10009 ft | 266 kts | 117° |
| 2026-05-03 21:15 | 38.21468 | -27.91766 | 10009 ft | 266 kts | 117° |
| 2026-05-03 21:15 | 38.20579 | -27.89708 | 10009 ft | 266 kts | 117° |
| 2026-05-03 21:16 | 38.19690 | -27.87651 | 10011 ft | 266 kts | 117° |
| 2026-05-03 21:16 | 38.18799 | -27.85594 | 10012 ft | 266 kts | 117° |
| 2026-05-03 21:16 | 38.17888 | -27.83515 | 10013 ft | 267 kts | 117° |
| 2026-05-03 21:16 | 38.16990 | -27.81455 | 10013 ft | 267 kts | 117° |
| 2026-05-03 21:17 | 38.16103 | -27.79390 | 10013 ft | 267 kts | 117° |
| 2026-05-03 21:17 | 38.15510 | -27.78027 | 10013 ft | 267 kts | 117° |
| 2026-05-03 21:17 | 38.14307 | -27.75280 | 10014 ft | 267 kts | 117° |
| 2026-05-03 21:17 | 38.13406 | -27.73224 | 10014 ft | 267 kts | 117° |
| 2026-05-03 21:18 | 38.12511 | -27.71169 | 10014 ft | 267 kts | 117° |
| 2026-05-03 21:18 | 38.11609 | -27.69116 | 10014 ft | 267 kts | 117° |
| 2026-05-03 21:18 | 38.10708 | -27.67061 | 10014 ft | 267 kts | 117° |
| 2026-05-03 21:18 | 38.09806 | -27.65007 | 10014 ft | 267 kts | 117° |
| 2026-05-03 21:19 | 38.08908 | -27.62950 | 10015 ft | 267 kts | 117° |
| 2026-05-03 21:19 | 38.08005 | -27.60901 | 10016 ft | 267 kts | 118° |
| 2026-05-03 21:19 | 38.07098 | -27.58834 | 10233 ft | 273 kts | 117° |
| 2026-05-03 21:19 | 38.06174 | -27.56736 | 10906 ft | 272 kts | 118° |
| 2026-05-03 21:20 | 38.05231 | -27.54594 | 11402 ft | 281 kts | 118° |
| 2026-05-03 21:20 | 38.04257 | -27.52373 | 11644 ft | 297 kts | 118° |
| 2026-05-03 21:20 | 38.03234 | -27.50034 | 11962 ft | 308 kts | 118° |
| 2026-05-03 21:20 | 38.02192 | -27.47644 | 12523 ft | 311 kts | 118° |
| 2026-05-03 21:21 | 38.01144 | -27.45233 | 13050 ft | 315 kts | 118° |
| 2026-05-03 21:21 | 38.00078 | -27.42804 | 13578 ft | 318 kts | 118° |
| 2026-05-03 21:21 | 37.98987 | -27.40357 | 14138 ft | 320 kts | 118° |
| 2026-05-03 21:21 | 37.97883 | -27.37892 | 14630 ft | 324 kts | 119° |
| 2026-05-03 21:22 | 37.96773 | -27.35407 | 15212 ft | 325 kts | 119° |
| 2026-05-03 21:22 | 37.95661 | -27.32898 | 15685 ft | 330 kts | 119° |
| 2026-05-03 21:22 | 37.94545 | -27.30354 | 16221 ft | 331 kts | 119° |
| 2026-05-03 21:22 | 37.93415 | -27.27795 | 16685 ft | 336 kts | 120° |
| 2026-05-03 21:23 | 37.92246 | -27.25174 | 17171 ft | 339 kts | 120° |
| 2026-05-03 21:23 | 37.91086 | -27.22576 | 17654 ft | 342 kts | 120° |
| 2026-05-03 21:23 | 37.89910 | -27.19941 | 18084 ft | 346 kts | 120° |
| 2026-05-03 21:23 | 37.88725 | -27.17287 | 18564 ft | 349 kts | 120° |
| 2026-05-03 21:24 | 37.87525 | -27.14601 | 18991 ft | 352 kts | 120° |
| 2026-05-03 21:24 | 37.86319 | -27.11899 | 19475 ft | 355 kts | 120° |
| 2026-05-03 21:24 | 37.85106 | -27.09172 | 19902 ft | 358 kts | 120° |
| 2026-05-03 21:24 | 37.83872 | -27.06424 | 20347 ft | 361 kts | 121° |
| 2026-05-03 21:25 | 37.82620 | -27.03658 | 20779 ft | 364 kts | 121° |
| 2026-05-03 21:25 | 37.81357 | -27.00867 | 21189 ft | 368 kts | 121° |
| 2026-05-03 21:25 | 37.80097 | -26.98044 | 21589 ft | 372 kts | 120° |
| 2026-05-03 21:25 | 37.78826 | -26.95193 | 21988 ft | 375 kts | 120° |
| 2026-05-03 21:26 | 37.77527 | -26.92286 | 22250 ft | 382 kts | 120° |
| 2026-05-03 21:26 | 37.76205 | -26.89325 | 22696 ft | 385 kts | 120° |
| 2026-05-03 21:26 | 37.74882 | -26.86371 | 23046 ft | 389 kts | 120° |
| 2026-05-03 21:26 | 37.73543 | -26.83394 | 23431 ft | 392 kts | 120° |
| 2026-05-03 21:27 | 37.72188 | -26.80401 | 23816 ft | 394 kts | 120° |
| 2026-05-03 21:27 | 37.70820 | -26.77395 | 24177 ft | 397 kts | 120° |
| 2026-05-03 21:27 | 37.69439 | -26.74372 | 24585 ft | 398 kts | 121° |
| 2026-05-03 21:27 | 37.68055 | -26.71334 | 24935 ft | 401 kts | 120° |
| 2026-05-03 21:28 | 37.66672 | -26.68264 | 25256 ft | 404 kts | 121° |
| 2026-05-03 21:28 | 37.65283 | -26.65186 | 25616 ft | 406 kts | 121° |
| 2026-05-03 21:28 | 37.63871 | -26.62085 | 25896 ft | 410 kts | 121° |
| 2026-05-03 21:28 | 37.62462 | -26.58963 | 26272 ft | 410 kts | 120° |
| 2026-05-03 21:29 | 37.61050 | -26.55825 | 26553 ft | 414 kts | 120° |
| 2026-05-03 21:29 | 37.59618 | -26.52681 | 26855 ft | 416 kts | 121° |
| 2026-05-03 21:29 | 37.58178 | -26.49519 | 27174 ft | 417 kts | 121° |
| 2026-05-03 21:29 | 37.56713 | -26.46290 | 27416 ft | 421 kts | 121° |
| 2026-05-03 21:30 | 37.55253 | -26.43098 | 27697 ft | 423 kts | 121° |
| 2026-05-03 21:30 | 37.53790 | -26.39880 | 27998 ft | 424 kts | 120° |
| 2026-05-03 21:30 | 37.52330 | -26.36648 | 28278 ft | 426 kts | 120° |
| 2026-05-03 21:30 | 37.50848 | -26.33408 | 28536 ft | 428 kts | 121° |
| 2026-05-03 21:31 | 37.49351 | -26.30174 | 28815 ft | 430 kts | 121° |
| 2026-05-03 21:31 | 37.47852 | -26.26909 | 29035 ft | 432 kts | 121° |
| 2026-05-03 21:31 | 37.46351 | -26.23622 | 29301 ft | 434 kts | 121° |
| 2026-05-03 21:31 | 37.44836 | -26.20336 | 29553 ft | 436 kts | 121° |
| 2026-05-03 21:32 | 37.43306 | -26.17040 | 29786 ft | 438 kts | 121° |
| 2026-05-03 21:32 | 37.40399 | -26.10692 | 30246 ft | 441 kts | 120° |
| 2026-05-03 21:32 | 37.38867 | -26.07356 | 30444 ft | 443 kts | 121° |
| 2026-05-03 21:33 | 37.37288 | -26.03965 | 30647 ft | 445 kts | 121° |
| 2026-05-03 21:33 | 37.35731 | -26.00609 | 30961 ft | 443 kts | 122° |
| 2026-05-03 21:33 | 37.34200 | -25.97267 | 31241 ft | 443 kts | 122° |
| 2026-05-03 21:33 | 37.32661 | -25.93911 | 31346 ft | 446 kts | 122° |
| 2026-05-03 21:34 | 37.31100 | -25.90549 | 31549 ft | 446 kts | 122° |
| 2026-05-03 21:34 | 37.29527 | -25.87188 | 31723 ft | 447 kts | 122° |
| 2026-05-03 21:34 | 37.27950 | -25.83820 | 31898 ft | 448 kts | 122° |
| 2026-05-03 21:34 | 37.26388 | -25.80444 | 32082 ft | 449 kts | 122° |
| 2026-05-03 21:35 | 37.23239 | -25.73618 | 32198 ft | 456 kts | 121° |
| 2026-05-03 21:35 | 37.21635 | -25.70182 | 32334 ft | 457 kts | 122° |
| 2026-05-03 21:35 | 37.20027 | -25.66759 | 32525 ft | 457 kts | 122° |
| 2026-05-03 21:36 | 37.16801 | -25.59867 | 32798 ft | 458 kts | 122° |
| 2026-05-03 21:36 | 37.15170 | -25.56377 | 32939 ft | 459 kts | 122° |
| 2026-05-03 21:36 | 37.13548 | -25.52939 | 33041 ft | 460 kts | 121° |
| 2026-05-03 21:37 | 37.10304 | -25.46288 | 33186 ft | 464 kts | 123° |
| 2026-05-03 21:37 | 37.08548 | -25.42903 | 33299 ft | 464 kts | 124° |
| 2026-05-03 21:37 | 37.06797 | -25.39500 | 33357 ft | 466 kts | 123° |
| 2026-05-03 21:38 | 37.05082 | -25.36058 | 33458 ft | 467 kts | 122° |
| 2026-05-03 21:38 | 37.03415 | -25.32571 | 33564 ft | 468 kts | 121° |
| 2026-05-03 21:38 | 37.00194 | -25.25494 | 33724 ft | 470 kts | 119° |
| 2026-05-03 21:39 | 36.98609 | -25.21922 | 33835 ft | 470 kts | 119° |
| 2026-05-03 21:39 | 36.97014 | -25.18360 | 33911 ft | 471 kts | 119° |
| 2026-05-03 21:39 | 36.93691 | -25.11313 | 34113 ft | 471 kts | 122° |
| 2026-05-03 21:40 | 36.90211 | -25.04310 | 34261 ft | 472 kts | 122° |
| 2026-05-03 21:40 | 36.86774 | -24.97328 | 34431 ft | 472 kts | 121° |
| 2026-05-03 21:41 | 36.83396 | -24.90303 | 34543 ft | 473 kts | 121° |
| 2026-05-03 21:41 | 36.80029 | -24.83253 | 34650 ft | 475 kts | 121° |
| 2026-05-03 21:42 | 36.76619 | -24.76192 | 34752 ft | 475 kts | 122° |
| 2026-05-03 21:42 | 36.74900 | -24.72683 | 34883 ft | 474 kts | 122° |
| 2026-05-03 21:42 | 36.73191 | -24.69177 | 34950 ft | 474 kts | 121° |
| 2026-05-03 21:43 | 36.69742 | -24.62119 | 34975 ft | 475 kts | 122° |
| 2026-05-03 21:43 | 36.66303 | -24.55129 | 34979 ft | 473 kts | 122° |
| 2026-05-03 21:44 | 36.62872 | -24.48157 | 34978 ft | 472 kts | 122° |
| 2026-05-03 21:44 | 36.59458 | -24.41186 | 34978 ft | 473 kts | 122° |
| 2026-05-03 21:45 | 36.56023 | -24.34215 | 34980 ft | 473 kts | 122° |
| 2026-05-03 21:45 | 36.52594 | -24.27256 | 34982 ft | 472 kts | 122° |
| 2026-05-03 21:46 | 36.49108 | -24.20282 | 34982 ft | 472 kts | 122° |
| 2026-05-03 21:46 | 36.45664 | -24.13349 | 34982 ft | 473 kts | 122° |
| 2026-05-03 21:47 | 36.42230 | -24.06404 | 34983 ft | 472 kts | 122° |
| 2026-05-03 21:47 | 36.38625 | -23.99643 | 34984 ft | 470 kts | 128° |
| 2026-05-03 21:48 | 36.34470 | -23.93394 | 34985 ft | 470 kts | 133° |
| 2026-05-03 21:48 | 36.30112 | -23.87381 | 34986 ft | 470 kts | 133° |
| 2026-05-03 21:49 | 36.25806 | -23.81305 | 34985 ft | 470 kts | 132° |
| 2026-05-03 21:49 | 36.21594 | -23.75069 | 34985 ft | 470 kts | 130° |
| 2026-05-03 21:50 | 36.17456 | -23.68817 | 34986 ft | 470 kts | 130° |
| 2026-05-03 21:50 | 36.13308 | -23.62595 | 34988 ft | 469 kts | 131° |
| 2026-05-03 21:51 | 36.09128 | -23.56412 | 34988 ft | 469 kts | 131° |
| 2026-05-03 21:51 | 36.04935 | -23.50238 | 34987 ft | 469 kts | 131° |
| 2026-05-03 21:52 | 36.00733 | -23.44090 | 34988 ft | 469 kts | 131° |
| 2026-05-03 21:52 | 35.96501 | -23.37918 | 34989 ft | 468 kts | 131° |
| 2026-05-03 21:53 | 35.92312 | -23.31798 | 34989 ft | 468 kts | 131° |
| 2026-05-03 21:53 | 35.88106 | -23.25675 | 34989 ft | 468 kts | 131° |
| 2026-05-03 21:54 | 35.83903 | -23.19561 | 34990 ft | 468 kts | 132° |
| 2026-05-03 21:54 | 35.79671 | -23.13468 | 34991 ft | 469 kts | 131° |
| 2026-05-03 21:55 | 35.75443 | -23.07365 | 34991 ft | 469 kts | 132° |
| 2026-05-03 21:55 | 35.71232 | -23.01257 | 34990 ft | 468 kts | 131° |
| 2026-05-03 21:56 | 35.67012 | -22.95124 | 34991 ft | 468 kts | 131° |
| 2026-05-03 21:56 | 35.62760 | -22.89034 | 34992 ft | 471 kts | 131° |
| 2026-05-03 21:57 | 35.58515 | -22.82917 | 34992 ft | 471 kts | 130° |
| 2026-05-03 21:57 | 35.54262 | -22.76803 | 34992 ft | 471 kts | 131° |
| 2026-05-03 21:58 | 35.49996 | -22.70729 | 34993 ft | 471 kts | 131° |
| 2026-05-03 21:58 | 35.45725 | -22.64662 | 34993 ft | 470 kts | 131° |
| 2026-05-03 21:59 | 35.41442 | -22.58567 | 34993 ft | 470 kts | 131° |
| 2026-05-03 21:59 | 35.37212 | -22.52477 | 34993 ft | 470 kts | 132° |
| 2026-05-03 22:00 | 35.32986 | -22.46404 | 34993 ft | 467 kts | 131° |
| 2026-05-03 22:00 | 35.28753 | -22.40405 | 34994 ft | 466 kts | 133° |
| 2026-05-03 22:01 | 35.24502 | -22.34446 | 34994 ft | 467 kts | 132° |
| 2026-05-03 22:01 | 35.20268 | -22.28433 | 34994 ft | 467 kts | 132° |
| 2026-05-03 22:02 | 35.15983 | -22.22418 | 34994 ft | 467 kts | 132° |
| 2026-05-03 22:02 | 35.11744 | -22.16425 | 34995 ft | 466 kts | 132° |
| 2026-05-03 22:03 | 35.07491 | -22.10455 | 34995 ft | 467 kts | 132° |
| 2026-05-03 22:03 | 35.03273 | -22.04456 | 34993 ft | 467 kts | 128° |
| 2026-05-03 22:04 | 35.01692 | -22.01000 | 34994 ft | 469 kts | 112° |
| 2026-05-03 22:04 | 35.00752 | -21.97203 | 35001 ft | 470 kts | 104° |
| 2026-05-03 22:04 | 34.99683 | -21.89351 | 34998 ft | 470 kts | 94° |
| 2026-05-03 22:05 | 34.99576 | -21.81403 | 34997 ft | 470 kts | 88° |
| 2026-05-03 22:05 | 34.99882 | -21.73403 | 34996 ft | 470 kts | 86° |
| 2026-05-03 22:06 | 35.00145 | -21.65459 | 34996 ft | 470 kts | 88° |
| 2026-05-03 22:06 | 35.00227 | -21.57502 | 34996 ft | 470 kts | 89° |
| 2026-05-03 22:07 | 35.00204 | -21.49550 | 34996 ft | 470 kts | 90° |
| 2026-05-03 22:07 | 35.00109 | -21.41590 | 34996 ft | 470 kts | 91° |
| 2026-05-03 22:08 | 34.99998 | -21.33639 | 34996 ft | 470 kts | 90° |
| 2026-05-03 22:08 | 34.99960 | -21.25633 | 34997 ft | 470 kts | 89° |
| 2026-05-03 22:09 | 34.99978 | -21.17673 | 34997 ft | 470 kts | 89° |
| 2026-05-03 22:10 | 35.00023 | -21.05740 | 34997 ft | 470 kts | 89° |
| 2026-05-03 22:10 | 34.99796 | -21.01775 | 34995 ft | 470 kts | 101° |
| 2026-05-03 22:10 | 34.98906 | -20.97955 | 35001 ft | 469 kts | 110° |
| 2026-05-03 22:11 | 34.96120 | -20.90798 | 35001 ft | 468 kts | 121° |
| 2026-05-03 22:11 | 34.93190 | -20.85205 | 35000 ft | 468 kts | 125° |
| 2026-05-03 22:12 | 34.89573 | -20.78633 | 34998 ft | 467 kts | 124° |
| 2026-05-03 22:12 | 34.86113 | -20.71948 | 34998 ft | 468 kts | 122° |
| 2026-05-03 22:13 | 34.82820 | -20.65121 | 34998 ft | 468 kts | 121° |
| 2026-05-03 22:13 | 34.79575 | -20.58274 | 34998 ft | 468 kts | 121° |
| 2026-05-03 22:14 | 34.76288 | -20.51450 | 34999 ft | 468 kts | 122° |
| 2026-05-03 22:14 | 34.72917 | -20.44639 | 34999 ft | 468 kts | 122° |
| 2026-05-03 22:15 | 34.69543 | -20.37888 | 34999 ft | 468 kts | 122° |
| 2026-05-03 22:15 | 34.66213 | -20.31114 | 34999 ft | 468 kts | 122° |
| 2026-05-03 22:16 | 34.62861 | -20.24361 | 34999 ft | 468 kts | 122° |
| 2026-05-03 22:16 | 34.59517 | -20.17601 | 34999 ft | 467 kts | 122° |
| 2026-05-03 22:17 | 34.56182 | -20.10862 | 34999 ft | 467 kts | 122° |
| 2026-05-03 22:17 | 34.52806 | -20.04150 | 34999 ft | 467 kts | 122° |
| 2026-05-03 22:18 | 34.49433 | -19.97377 | 34999 ft | 467 kts | 122° |
| 2026-05-03 22:18 | 34.46067 | -19.90684 | 35194 ft | 465 kts | 122° |
| 2026-05-03 22:19 | 34.42711 | -19.83986 | 35262 ft | 467 kts | 122° |
| 2026-05-03 22:19 | 34.39336 | -19.77250 | 35266 ft | 469 kts | 122° |
| 2026-05-03 22:20 | 34.35952 | -19.70502 | 35266 ft | 469 kts | 122° |
| 2026-05-03 22:20 | 34.32559 | -19.63779 | 35266 ft | 469 kts | 123° |
| 2026-05-03 22:21 | 34.29120 | -19.57027 | 35266 ft | 469 kts | 123° |
| 2026-05-03 22:21 | 34.25727 | -19.50307 | 35266 ft | 469 kts | 122° |
| 2026-05-03 22:22 | 34.22316 | -19.43608 | 35266 ft | 469 kts | 123° |
| 2026-05-03 22:22 | 34.18921 | -19.36898 | 35266 ft | 469 kts | 122° |
| 2026-05-03 22:23 | 34.15504 | -19.30197 | 35266 ft | 469 kts | 123° |
| 2026-05-03 22:23 | 34.12085 | -19.23516 | 35266 ft | 469 kts | 123° |
| 2026-05-03 22:24 | 34.08575 | -19.16841 | 35266 ft | 469 kts | 123° |
| 2026-05-03 22:24 | 34.05104 | -19.10191 | 35266 ft | 469 kts | 123° |
| 2026-05-03 22:25 | 34.01715 | -19.03492 | 35266 ft | 469 kts | 121° |
| 2026-05-03 22:25 | 34.00392 | -18.99907 | 35266 ft | 470 kts | 109° |
| 2026-05-03 22:25 | 33.99486 | -18.96120 | 35271 ft | 471 kts | 104° |
| 2026-05-03 22:26 | 33.98507 | -18.88340 | 35274 ft | 471 kts | 95° |
| 2026-05-03 22:26 | 33.98164 | -18.80468 | 35275 ft | 471 kts | 92° |
| 2026-05-03 22:27 | 33.97854 | -18.72602 | 35275 ft | 471 kts | 93° |